createdAt,value
2022-12-14T00:00:24.396Z,92681.67
2022-12-14T00:05:31.456Z,92681.84
2022-12-14T00:10:40.554Z,92672.42
2022-12-14T00:15:47.550Z,92662.77
2022-12-14T00:20:54.316Z,92663.56
2022-12-14T00:26:02.852Z,92651.30
2022-12-14T00:31:10.069Z,92633.63
2022-12-14T00:36:17.218Z,92619.29
2022-12-14T00:41:24.329Z,92619.09
2022-12-14T00:46:31.658Z,92619.29
2022-12-14T00:51:39.374Z,92618.61
2022-12-14T00:56:46.278Z,92616.89
2022-12-14T01:01:53.642Z,92606.88
2022-12-14T01:07:00.748Z,92606.88
2022-12-14T01:12:07.851Z,92603.69
2022-12-14T01:17:14.682Z,92599.30
2022-12-14T01:22:21.458Z,92592.05
2022-12-14T01:27:28.371Z,92589.36
2022-12-14T01:32:36.723Z,92593.45
2022-12-14T01:37:43.519Z,92587.26
2022-12-14T01:42:50.628Z,92595.13
2022-12-14T01:48:01.215Z,92597.52
2022-12-14T01:53:14.092Z,92592.56
2022-12-14T01:58:26.812Z,92598.02
2022-12-14T02:03:43.950Z,92589.27
2022-12-14T02:08:53.946Z,92580.88
2022-12-14T02:14:01.018Z,92583.66
2022-12-14T02:19:08.037Z,92569.72
2022-12-14T02:24:37.156Z,92568.37
2022-12-14T02:30:19.616Z,92560.31
2022-12-14T02:36:02.807Z,92561.47
2022-12-14T02:41:39.155Z,92555.61
2022-12-14T02:47:18.467Z,92558.17
2022-12-14T02:53:04.812Z,92548.67
2022-12-14T02:58:21.731Z,92546.09
2022-12-14T03:03:28.793Z,92535.19
2022-12-14T03:08:38.056Z,92529.68
2022-12-14T03:14:01.092Z,92521.84
2022-12-14T03:19:20.497Z,92520.72
2022-12-14T03:24:31.521Z,92508.89
2022-12-14T03:29:55.534Z,92489.11
2022-12-14T03:35:20.627Z,92514.44
2022-12-14T03:40:34.590Z,92494.59
2022-12-14T03:46:09.691Z,92497.94
2022-12-14T03:51:52.229Z,92489.97
2022-12-14T03:57:46.774Z,92489.83
2022-12-14T04:03:11.949Z,92497.38
2022-12-14T04:08:53.489Z,92506.92
2022-12-14T04:14:22.420Z,92509.97
2022-12-14T04:19:45.896Z,92493.53
2022-12-14T04:25:24.029Z,92498.38
2022-12-14T04:30:34.076Z,92487.20
2022-12-14T04:35:43.065Z,92486.69
2022-12-14T04:40:56.975Z,92463.98
2022-12-14T04:46:10.146Z,92466.29
2022-12-14T04:52:01.942Z,92456.02
2022-12-14T04:57:17.388Z,92450.19
2022-12-14T05:02:44.191Z,92455.30
2022-12-14T05:08:06.923Z,92461.03
2022-12-14T05:13:27.116Z,92475.46
2022-12-14T05:18:38.357Z,92450.56
2022-12-14T05:23:45.086Z,92448.23
2022-12-14T05:28:51.762Z,92450.14
2022-12-14T05:33:58.530Z,92444.81
2022-12-14T05:39:05.449Z,92445.14
2022-12-14T05:44:12.328Z,92438.34
2022-12-14T05:49:20.004Z,92425.19
2022-12-14T05:54:26.659Z,92422.03
2022-12-14T05:59:34.227Z,92414.17
2022-12-14T06:04:41.773Z,92378.22
2022-12-14T06:09:48.452Z,92392.40
2022-12-14T06:14:55.162Z,92416.69
2022-12-14T06:20:02.457Z,92418.73
2022-12-14T06:25:11.327Z,92429.95
2022-12-14T06:30:18.708Z,92431.00
2022-12-14T06:35:25.330Z,92431.28
2022-12-14T06:40:32.043Z,92421.67
2022-12-14T06:45:38.970Z,92416.25
2022-12-14T06:50:45.722Z,92410.45
2022-12-14T06:55:52.460Z,92410.59
2022-12-14T07:01:07.787Z,92412.58
2022-12-14T07:06:14.537Z,92413.93
2022-12-14T07:11:21.319Z,92403.92
2022-12-14T07:16:32.512Z,92400.75
2022-12-14T07:21:39.214Z,92399.28
2022-12-14T07:26:46.665Z,92407.84
2022-12-14T07:31:53.550Z,92411.89
2022-12-14T07:37:00.322Z,92388.36
2022-12-14T07:42:07.054Z,92408.14
2022-12-14T07:47:16.698Z,92415.82
2022-12-14T07:52:22.565Z,92432.53
2022-12-14T07:57:29.267Z,92416.41
2022-12-14T08:02:36.112Z,92419.72
2022-12-14T08:07:43.048Z,92406.59
2022-12-14T08:12:52.685Z,92412.16
2022-12-14T08:17:59.381Z,92414.33
2022-12-14T08:23:06.395Z,92413.69
2022-12-14T08:28:13.205Z,92408.14
2022-12-14T08:33:21.502Z,92408.23
2022-12-14T08:38:28.348Z,92405.64
2022-12-14T08:43:35.330Z,92402.52
2022-12-14T08:48:42.029Z,92397.58
2022-12-14T08:53:48.760Z,92399.08
2022-12-14T08:58:55.768Z,92407.19
2022-12-14T09:04:06.297Z,92421.95
2022-12-14T09:09:16.317Z,92413.30
2022-12-14T09:14:21.701Z,92404.98
2022-12-14T09:19:29.036Z,92421.45
2022-12-14T09:24:36.173Z,92409.09
2022-12-14T09:29:42.874Z,92406.72
2022-12-14T09:34:49.566Z,92397.47
2022-12-14T09:39:56.289Z,92396.34
2022-12-14T09:45:19.392Z,92399.12
2022-12-14T09:50:26.254Z,92397.55
2022-12-14T09:55:44.946Z,92394.32
2022-12-14T10:01:26.028Z,92385.19
2022-12-14T10:06:59.447Z,92376.41
2022-12-14T10:12:19.735Z,92361.42
2022-12-14T10:17:48.664Z,92348.61
2022-12-14T10:22:56.811Z,92342.74
2022-12-14T10:28:11.779Z,92326.34
2022-12-14T10:33:28.174Z,92313.53
2022-12-14T10:38:44.956Z,92309.27
2022-12-14T10:44:09.528Z,92294.18
2022-12-14T10:49:26.069Z,92285.89
2022-12-14T10:54:39.373Z,92276.38
2022-12-14T11:00:05.224Z,92267.14
2022-12-14T11:05:07.121Z,92245.55
2022-12-14T11:10:29.377Z,92250.02
2022-12-14T11:15:42.505Z,92239.76
2022-12-14T11:20:56.649Z,92229.04
2022-12-14T11:26:07.845Z,92205.42
2022-12-14T11:31:27.627Z,92196.59
2022-12-14T11:36:42.801Z,92194.22
2022-12-14T11:42:04.748Z,92182.48
2022-12-14T11:47:17.383Z,92175.98
2022-12-14T11:52:40.456Z,92165.19
2022-12-14T11:57:56.551Z,92158.95
2022-12-14T12:03:16.480Z,92141.48
2022-12-14T12:08:35.982Z,92136.28
2022-12-14T12:13:45.323Z,92122.64
2022-12-14T12:19:04.024Z,92114.88
2022-12-14T12:24:17.339Z,92121.97
2022-12-14T12:29:50.409Z,92107.56
2022-12-14T12:35:12.273Z,92110.84
2022-12-14T12:40:34.507Z,92105.40
2022-12-14T12:45:45.698Z,92094.19
2022-12-14T12:50:59.991Z,92088.00
2022-12-14T12:56:14.085Z,92087.69
2022-12-14T13:01:36.422Z,92088.86
2022-12-14T13:06:52.956Z,92077.73
2022-12-14T13:12:01.531Z,92067.47
2022-12-14T13:17:12.736Z,92078.46
2022-12-14T13:22:27.360Z,92080.22
2022-12-14T13:27:56.894Z,92057.67
2022-12-14T13:33:27.365Z,92057.19
2022-12-14T13:38:44.482Z,92058.17
2022-12-14T13:44:03.700Z,92054.89
2022-12-14T13:49:18.017Z,92063.28
2022-12-14T13:54:32.182Z,92060.55
2022-12-14T13:59:46.305Z,92075.19
2022-12-14T14:04:53.146Z,92082.53
2022-12-14T14:10:06.927Z,92092.55
2022-12-14T14:15:32.043Z,92094.46
2022-12-14T14:20:58.939Z,92086.52
2022-12-14T14:26:26.031Z,92088.77
2022-12-14T14:31:52.799Z,92085.60
2022-12-14T14:37:00.039Z,92097.78
2022-12-14T14:42:10.186Z,92073.61
2022-12-14T14:47:27.071Z,92066.00
2022-12-14T14:52:45.946Z,92059.66
2022-12-14T14:58:30.807Z,92060.89
2022-12-14T15:03:58.094Z,92046.73
2022-12-14T15:09:12.579Z,92055.05
2022-12-14T15:14:48.268Z,92051.43
2022-12-14T15:20:02.538Z,92054.91
2022-12-14T15:25:28.382Z,92048.38
2022-12-14T15:30:37.077Z,92050.19
2022-12-14T15:35:43.965Z,92048.16
2022-12-14T15:41:04.060Z,92035.36
2022-12-14T15:46:29.850Z,92033.69
2022-12-14T15:51:43.678Z,92020.20
2022-12-14T15:56:59.397Z,91999.16
2022-12-14T16:02:32.530Z,91986.19
2022-12-14T16:07:42.007Z,91993.94
2022-12-14T16:12:51.531Z,91981.94
2022-12-14T16:18:02.640Z,91972.47
2022-12-14T16:23:19.373Z,91975.86
2022-12-14T16:28:36.537Z,91977.30
2022-12-14T16:33:45.667Z,91989.45
2022-12-14T16:39:10.413Z,91989.08
2022-12-14T16:44:33.231Z,91996.68
2022-12-14T16:49:55.355Z,91990.58
2022-12-14T16:55:20.639Z,92000.45
2022-12-14T17:00:35.048Z,92010.23
2022-12-14T17:05:43.802Z,92010.07
2022-12-14T17:10:51.269Z,92006.80
2022-12-14T17:16:07.858Z,92000.13
2022-12-14T17:21:27.219Z,91991.30
2022-12-14T17:26:35.479Z,91993.37
2022-12-14T17:31:47.671Z,91995.75
2022-12-14T17:36:51.057Z,91977.59
2022-12-14T17:41:58.398Z,91985.59
2022-12-14T17:47:05.548Z,91989.96
2022-12-14T17:52:29.214Z,91981.23
2022-12-14T17:57:41.044Z,91978.46
2022-12-14T18:02:48.197Z,91993.73
2022-12-14T18:07:55.613Z,91981.19
2022-12-14T18:13:02.806Z,91992.33
2022-12-14T18:18:10.655Z,91980.77
2022-12-14T18:23:19.990Z,91970.98
2022-12-14T18:28:27.303Z,91966.20
2022-12-14T18:33:35.496Z,91966.20
2022-12-14T18:38:42.519Z,91973.52
2022-12-14T18:43:50.615Z,91983.05
2022-12-14T18:48:57.385Z,91978.39
2022-12-14T18:54:04.604Z,91987.22
2022-12-14T18:59:11.746Z,91979.05
2022-12-14T19:04:18.838Z,91978.72
2022-12-14T19:09:25.777Z,91994.46
2022-12-14T19:14:32.932Z,91993.92
2022-12-14T19:19:44.396Z,91988.39
2022-12-14T19:24:52.277Z,91997.77
2022-12-14T19:29:57.533Z,91995.91
2022-12-14T19:35:04.416Z,92005.94
2022-12-14T19:40:13.842Z,91996.03
2022-12-14T19:45:20.906Z,91990.72
2022-12-14T19:50:28.488Z,91991.63
2022-12-14T19:55:36.576Z,91994.56
2022-12-14T20:00:43.527Z,92007.41
2022-12-14T20:05:59.908Z,91997.09
2022-12-14T20:11:12.416Z,92025.26
2022-12-14T20:16:20.355Z,92021.09
2022-12-14T20:21:29.773Z,92023.57
2022-12-14T20:26:37.176Z,92007.86
2022-12-14T20:31:44.163Z,92013.70
2022-12-14T20:36:51.123Z,92017.84
2022-12-14T20:41:58.899Z,92039.05
2022-12-14T20:47:05.787Z,92016.94
2022-12-14T20:52:12.787Z,92022.47
2022-12-14T20:57:20.040Z,92017.48
2022-12-14T21:02:27.231Z,92021.91
2022-12-14T21:07:34.481Z,92025.28
2022-12-14T21:12:41.278Z,92020.49
2022-12-14T21:17:48.022Z,92011.09
2022-12-14T21:22:54.843Z,92019.73
2022-12-14T21:28:01.584Z,92008.99
2022-12-14T21:33:08.279Z,92001.08
2022-12-14T21:38:14.963Z,92004.98
2022-12-14T21:43:21.719Z,92006.33
2022-12-14T21:48:28.872Z,92007.42
2022-12-14T21:53:37.099Z,92009.42
2022-12-14T21:58:48.511Z,91990.31
2022-12-14T22:03:54.733Z,91979.72
2022-12-14T22:09:03.496Z,91973.33
2022-12-14T22:14:13.446Z,91972.05
2022-12-14T22:19:26.088Z,91977.50
2022-12-14T22:24:33.190Z,91990.42
2022-12-14T22:29:40.347Z,91990.59
2022-12-14T22:34:47.107Z,92002.28
2022-12-14T22:39:54.269Z,91996.30
2022-12-14T22:45:01.083Z,91992.70
2022-12-14T22:50:09.131Z,91991.78
2022-12-14T22:55:16.604Z,91996.78
2022-12-14T23:00:23.810Z,91971.40
2022-12-14T23:06:27.402Z,91982.02
2022-12-14T23:11:52.381Z,91995.67
2022-12-14T23:17:18.741Z,91985.67
2022-12-14T23:22:42.609Z,91986.08
2022-12-14T23:28:07.024Z,91988.84
2022-12-14T23:33:32.019Z,91985.33
2022-12-14T23:38:57.026Z,91996.15
2022-12-14T23:44:21.830Z,91996.36
2022-12-14T23:49:45.992Z,91996.78
2022-12-14T23:55:10.481Z,92000.25
